Time;durP1;ratioP1;P1;durP2;ratioP2;P2;SDS_P1;SDS_P2;PMS_P1;PMS_P2;Temp;Humidity;BMP_temperature;BMP_pressure;BME280_temperature;BME280_humidity;BME280_pressure;Samples;Min_cycle;Max_cycle;Signal;HPM_P1;HPM_P2
2022/04/29 00:01:39;;;;;;;22.85;12.43;;;;;;;15.53;49.73;102126.69;4961151;28;20055;-68
2022/04/29 00:04:07;;;;;;;21.27;12.77;;;;;;;15.46;50.07;102126.28;4978634;28;20055;-68
2022/04/29 00:06:34;;;;;;;25.20;12.55;;;;;;;15.43;50.18;102126.91;4977430;28;20123;-67
2022/04/29 00:09:02;;;;;;;19.27;12.23;;;;;;;15.59;49.73;102120.69;4978657;28;20050;-67
2022/04/29 00:11:29;;;;;;;18.75;12.30;;;;;;;15.33;50.33;102127.91;4980165;28;20050;-68
2022/04/29 00:14:00;;;;;;;22.55;12.70;;;;;;;15.48;50.10;102133.16;4965868;28;20057;-69
2022/04/29 00:16:35;;;;;;;20.15;13.45;;;;;;;15.20;50.67;102119.59;4947942;28;20062;-68
2022/04/29 00:19:05;;;;;;;18.05;13.23;;;;;;;15.15;50.78;102116.94;4952418;28;20051;-63
2022/04/29 00:21:42;;;;;;;19.17;12.57;;;;;;;15.19;51.04;102110.44;4960430;28;20054;-63
2022/04/29 00:24:10;;;;;;;23.23;13.88;;;;;;;15.20;51.43;102109.31;4955198;29;20039;-68
2022/04/29 00:26:38;;;;;;;21.77;12.75;;;;;;;15.43;50.56;102097.16;4975367;28;20050;-67
2022/04/29 00:29:07;;;;;;;28.45;13.15;;;;;;;15.42;50.68;102098.31;4977844;28;20058;-67
2022/04/29 00:31:34;;;;;;;21.45;14.07;;;;;;;15.08;51.64;102106.25;4977717;28;20122;-69
2022/04/29 00:34:02;;;;;;;25.70;13.98;;;;;;;14.86;52.84;102108.94;4960219;28;20407;-67
2022/04/29 00:36:29;;;;;;;22.80;14.10;;;;;;;15.03;52.23;102102.78;4960396;28;20051;-62
2022/04/29 00:38:57;;;;;;;25.70;14.20;;;;;;;14.96;52.50;102103.16;4978178;28;20427;-62
2022/04/29 00:41:26;;;;;;;24.27;14.35;;;;;;;14.81;53.10;102100.72;4977703;28;20047;-63
2022/04/29 00:44:04;;;;;;;27.05;15.73;;;;;;;14.82;53.16;102093.22;4959405;28;20105;-62
2022/04/29 00:46:37;;;;;;;24.80;15.52;;;;;;;14.89;53.04;102097.22;4977633;28;20062;-63
2022/04/29 00:49:16;;;;;;;30.60;15.85;;;;;;;14.79;53.36;102093.81;4931425;28;20070;-62
2022/04/29 00:51:46;;;;;;;26.65;16.92;;;;;;;14.56;53.84;102093.72;4975977;28;20042;-63
2022/04/29 00:54:19;;;;;;;22.58;15.77;;;;;;;14.49;54.30;102092.47;4976367;28;20055;-63
2022/04/29 00:56:47;;;;;;;28.63;16.65;;;;;;;14.31;54.87;102094.19;4977039;28;20518;-63
2022/04/29 00:59:19;;;;;;;25.02;16.38;;;;;;;14.42;54.73;102092.03;4941114;29;20075;-62
2022/04/29 01:01:47;;;;;;;32.90;16.77;;;;;;;14.24;55.11;102079.06;4970146;28;20051;-62
2022/04/29 01:04:37;;;;;;;26.23;16.70;;;;;;;14.38;54.73;102082.72;4977656;28;20047;-63
2022/04/29 01:07:04;;;;;;;31.50;17.40;;;;;;;14.44;54.29;102085.06;4945548;28;20382;-63
2022/04/29 01:09:37;;;;;;;27.10;17.23;;;;;;;14.29;54.70;102073.44;4977993;28;20055;-63
2022/04/29 01:12:08;;;;;;;28.63;17.30;;;;;;;14.26;55.23;102082.38;4982202;28;20046;-61
2022/04/29 01:14:36;;;;;;;29.58;17.92;;;;;;;14.06;55.43;102080.75;4977223;28;20066;-62
2022/04/29 01:17:03;;;;;;;29.10;18.35;;;;;;;14.01;55.76;102066.16;4975936;28;20521;-63
2022/04/29 01:19:31;;;;;;;28.98;17.63;;;;;;;14.18;55.32;102074.72;4981430;28;20050;-62
2022/04/29 01:22:00;;;;;;;28.40;17.65;;;;;;;14.30;54.85;102069.53;4946057;28;20486;-62
2022/04/29 01:24:27;;;;;;;32.58;18.50;;;;;;;14.25;54.87;102059.34;4979200;28;20058;-63
2022/04/29 01:26:54;;;;;;;28.35;16.77;;;;;;;14.45;54.26;102061.75;4946681;28;20053;-62
2022/04/29 01:29:23;;;;;;;25.98;18.90;;;;;;;14.46;54.10;102063.41;4946553;28;20195;-62
2022/04/29 01:31:57;;;;;;;27.52;18.05;;;;;;;14.38;54.15;102060.53;4958907;28;20061;-68
2022/04/29 01:34:28;;;;;;;31.55;18.90;;;;;;;14.17;54.73;102075.88;4959505;28;20070;-62
2022/04/29 01:36:55;;;;;;;;;;;;;;;14.07;55.16;102074.06;4943356;28;20054;-68
2022/04/29 01:39:23;;;;;;;36.92;18.15;;;;;;;13.81;56.19;102063.75;4943932;28;20017;-68
2022/04/29 01:41:51;;;;;;;30.60;18.65;;;;;;;13.77;56.07;102074.63;4951017;28;20054;-68
2022/04/29 01:44:19;;;;;;;42.72;19.05;;;;;;;13.88;55.92;102073.31;4953292;28;20538;-70
2022/04/29 01:46:46;;;;;;;27.55;18.02;;;;;;;13.90;55.89;102061.91;4959232;28;20391;-68
2022/04/29 01:49:27;;;;;;;33.90;18.60;;;;;;;14.09;55.67;102063.50;4975739;28;20138;-68
2022/04/29 01:51:59;;;;;;;29.95;18.60;;;;;;;14.01;55.36;102064.22;4971216;28;20054;-68
2022/04/29 01:54:29;;;;;;;33.90;18.48;;;;;;;14.14;54.92;102057.88;4969912;28;20058;-67
2022/04/29 01:57:00;;;;;;;;;;;;;;;14.14;54.61;102068.16;4942767;28;20050;-69
2022/04/29 01:59:28;;;;;;;34.92;18.80;;;;;;;13.77;55.80;102069.06;4958638;28;19921;-70
2022/04/29 02:02:08;;;;;;;29.55;18.58;;;;;;;13.93;55.44;102070.44;4960831;28;20058;-64
2022/04/29 02:04:39;;;;;;;27.40;18.30;;;;;;;13.94;55.56;102074.03;4958884;28;20518;-68
2022/04/29 02:07:06;;;;;;;30.35;19.20;;;;;;;13.95;55.72;102070.13;4971553;28;20054;-62
2022/04/29 02:09:39;;;;;;;34.38;17.65;;;;;;;14.13;54.76;102070.09;4957049;28;20043;-62
2022/04/29 02:12:09;;;;;;;28.77;18.25;;;;;;;13.86;55.20;102067.25;4973588;28;20062;-63
2022/04/29 02:15:15;;;;;;;31.35;19.20;;;;;;;13.82;55.68;102079.22;4975789;28;20153;-62
2022/04/29 02:17:44;;;;;;;32.65;18.75;;;;;;;13.96;55.34;102075.41;4954714;28;20493;-65
2022/04/29 02:20:12;;;;;;;29.30;19.23;;;;;;;13.71;55.80;102075.81;4973901;28;20057;-63
2022/04/29 02:22:40;;;;;;;30.10;18.73;;;;;;;13.73;56.12;102079.09;4958502;28;20047;-61
2022/04/29 02:25:08;;;;;;;31.40;18.40;;;;;;;13.71;55.94;102077.75;4975931;28;20054;-62
2022/04/29 02:27:39;;;;;;;31.30;19.42;;;;;;;13.67;55.96;102082.25;4974653;28;20051;-63
2022/04/29 02:30:07;;;;;;;38.20;19.23;;;;;;;13.80;55.76;102084.25;4958319;28;20069;-61
2022/04/29 02:32:35;;;;;;;29.50;19.35;;;;;;;13.94;55.28;102082.34;4957071;28;20069;-62
2022/04/29 02:35:05;;;;;;;30.70;20.10;;;;;;;13.85;55.57;102084.16;4958206;28;20058;-62
2022/04/29 02:37:33;;;;;;;32.45;19.63;;;;;;;13.55;57.12;102078.00;4957943;28;20058;-63
2022/04/29 02:40:00;;;;;;;27.20;18.08;;;;;;;13.47;57.36;102081.44;4968544;28;20050;-61
2022/04/29 02:42:29;;;;;;;31.75;19.65;;;;;;;13.24;57.90;102085.09;4949908;28;20046;-62
2022/04/29 02:44:57;;;;;;;33.35;20.52;;;;;;;13.28;58.13;102080.63;4938015;29;20074;-61
2022/04/29 02:47:27;;;;;;;35.30;20.10;;;;;;;13.12;58.52;102081.13;4952384;28;20062;-62
2022/04/29 02:49:54;;;;;;;36.75;20.48;;;;;;;13.27;58.21;102078.13;4958951;28;20490;-62
2022/04/29 02:52:23;;;;;;;34.40;20.45;;;;;;;13.31;57.86;102070.88;4954223;28;20059;-62
2022/04/29 02:54:50;;;;;;;33.38;20.80;;;;;;;13.30;57.67;102072.81;4972821;28;20058;-61
2022/04/29 02:57:38;;;;;;;35.33;21.30;;;;;;;13.33;57.77;102072.25;4961256;28;20544;-62
2022/04/29 03:00:08;;;;;;;32.90;21.52;;;;;;;13.20;57.81;102072.13;4976222;28;20047;-63
2022/04/29 03:02:35;;;;;;;37.13;20.75;;;;;;;13.40;57.44;102074.63;4975542;28;20062;-63
2022/04/29 03:05:07;;;;;;;32.67;20.35;;;;;;;13.56;56.76;102084.38;4973523;28;20046;-61
2022/04/29 03:07:34;;;;;;;30.17;20.13;;;;;;;13.48;56.78;102083.09;4973103;28;20055;-62
2022/04/29 03:10:05;;;;;;;31.30;20.40;;;;;;;13.22;57.48;102078.19;4954347;28;20426;-62
2022/04/29 03:12:33;;;;;;;35.42;20.42;;;;;;;13.40;56.96;102072.69;4980133;28;20062;-62
2022/04/29 03:15:16;;;;;;;31.95;19.98;;;;;;;13.44;57.04;102076.50;4941235;28;20059;-62
2022/04/29 03:20:38;;;;;;;31.08;20.27;;;;;;;13.50;56.55;102071.69;4957147;28;20066;-61
2022/04/29 03:23:06;;;;;;;32.70;20.55;;;;;;;13.53;56.73;102069.16;4974162;28;20046;-62
2022/04/29 03:25:35;;;;;;;33.08;20.95;;;;;;;13.41;57.34;102067.97;4973716;28;20062;-61
2022/04/29 03:28:05;;;;;;;28.88;20.02;;;;;;;13.49;56.70;102064.53;4941150;28;20532;-62
2022/04/29 03:30:33;;;;;;;30.60;20.87;;;;;;;13.40;56.62;102058.84;4942591;28;20471;-62
2022/04/29 03:33:02;;;;;;;30.30;20.15;;;;;;;13.39;56.95;102065.50;4977814;28;20051;-62
2022/04/29 03:35:40;;;;;;;37.53;22.45;;;;;;;13.23;57.08;102055.78;4961561;28;20058;-62
2022/04/29 03:38:12;;;;;;;31.77;21.38;;;;;;;13.18;57.23;102052.28;4945736;28;20054;-62
2022/04/29 03:40:40;;;;;;;36.95;22.20;;;;;;;12.96;57.69;102052.81;4957879;28;20061;-62
2022/04/29 03:43:07;;;;;;;38.40;21.60;;;;;;;13.04;57.85;102043.88;4969955;28;20051;-63
2022/04/29 03:45:35;;;;;;;31.73;21.35;;;;;;;13.24;57.31;102048.28;4950194;28;20057;-61
2022/04/29 03:48:04;;;;;;;36.17;20.10;;;;;;;13.37;57.17;102044.78;4969389;28;20055;-68
2022/04/29 03:50:41;;;;;;;35.15;21.42;;;;;;;13.34;56.63;102037.91;4968847;28;20054;-67
2022/04/29 03:53:11;;;;;;;40.22;21.92;;;;;;;13.08;57.67;102035.78;4961715;28;20470;-61
2022/04/29 03:55:42;;;;;;;29.13;20.75;;;;;;;13.25;57.08;102028.63;4970026;28;20057;-62
2022/04/29 03:58:10;;;;;;;32.95;21.45;;;;;;;13.19;57.30;102021.53;4977971;28;20077;-61
2022/04/29 04:00:49;;;;;;;34.50;21.05;;;;;;;12.92;58.11;102029.63;4973439;28;20069;-62
2022/04/29 04:03:28;;;;;;;32.73;20.37;;;;;;;13.42;57.02;102022.56;4961132;28;20066;-61
2022/04/29 04:08:51;;;;;;;32.35;21.27;;;;;;;13.38;56.72;102025.13;4967747;28;20061;-61
2022/04/29 04:11:18;;;;;;;32.60;21.88;;;;;;;13.45;57.04;102025.56;4961372;28;20062;-62
2022/04/29 04:13:46;;;;;;;35.70;21.52;;;;;;;13.63;56.14;102034.97;4966408;28;20502;-63
2022/04/29 04:16:24;;;;;;;38.67;21.38;;;;;;;13.39;56.67;102026.75;4954186;28;20475;-68
2022/04/29 04:18:53;;;;;;;34.72;21.85;;;;;;;13.58;56.27;102024.78;4960817;28;20058;-67
2022/04/29 04:21:20;;;;;;;39.88;22.35;;;;;;;13.31;56.97;102032.97;4961246;28;20379;-67
2022/04/29 04:23:48;;;;;;;40.55;23.00;;;;;;;13.19;57.34;102029.84;4977656;28;20046;-66
2022/04/29 04:26:16;;;;;;;35.00;22.40;;;;;;;12.98;58.00;102031.22;4960937;28;20061;-67
2022/04/29 04:28:43;;;;;;;36.33;21.98;;;;;;;13.02;57.56;102034.25;4960184;28;20065;-67
2022/04/29 04:31:11;;;;;;;34.08;22.30;;;;;;;12.90;58.36;102033.81;4960981;28;20062;-63
2022/04/29 04:33:53;;;;;;;37.92;22.55;;;;;;;12.97;58.22;102037.03;4959658;28;20046;-62
2022/04/29 04:36:20;;;;;;;35.63;22.25;;;;;;;13.18;57.65;102033.72;4960686;28;20042;-62
2022/04/29 04:38:48;;;;;;;41.28;22.45;;;;;;;12.94;58.18;102038.44;4960394;28;20425;-68
2022/04/29 04:41:17;;;;;;;37.00;22.02;;;;;;;13.12;57.65;102034.91;4966271;28;20050;-68
2022/04/29 04:43:45;;;;;;;33.42;22.25;;;;;;;12.76;58.19;102036.47;4959033;28;20471;-67
2022/04/29 04:46:13;;;;;;;41.03;22.30;;;;;;;12.73;58.92;102039.84;4984283;28;20363;-67
2022/04/29 04:48:41;;;;;;;38.65;23.20;;;;;;;12.72;58.87;102046.50;4971790;28;20058;-67
2022/04/29 04:51:11;;;;;;;40.58;23.20;;;;;;;12.54;59.29;102043.66;4990366;28;20050;-68
2022/04/29 04:53:45;;;;;;;33.20;22.67;;;;;;;12.78;59.04;102052.78;4945477;28;20077;-67
2022/04/29 04:56:12;;;;;;;35.30;23.40;;;;;;;12.61;59.19;102052.41;4976680;28;20049;-67
2022/04/29 04:58:39;;;;;;;32.58;22.00;;;;;;;12.45;59.93;102052.59;4989871;28;20354;-67
2022/04/29 05:01:07;;;;;;;37.08;22.85;;;;;;;12.30;60.27;102047.25;4992293;28;20062;-67
2022/04/29 05:03:52;;;;;;;33.28;22.60;;;;;;;12.35;60.40;102049.13;4971257;28;20046;-67
2022/04/29 05:06:48;;;;;;;38.80;23.17;;;;;;;12.66;59.26;102046.84;4923241;28;20060;-67
2022/04/29 05:09:16;;;;;;;35.17;22.92;;;;;;;12.76;58.77;102047.53;4975609;28;20063;-68
2022/04/29 05:11:43;;;;;;;39.42;22.10;;;;;;;12.70;58.92;102051.50;4964600;28;20050;-68
2022/04/29 05:14:49;;;;;;;42.83;24.17;;;;;;;12.52;59.26;102055.00;4965997;28;20062;-68
2022/04/29 05:17:17;;;;;;;44.67;23.05;;;;;;;12.69;58.94;102063.69;4959425;28;20058;-67
2022/04/29 05:20:03;;;;;;;50.58;23.35;;;;;;;12.40;59.89;102055.44;4976916;28;20050;-67
2022/04/29 05:22:34;;;;;;;42.13;23.20;;;;;;;12.82;58.64;102056.59;4964333;28;20055;-67
2022/04/29 05:25:02;;;;;;;31.92;21.88;;;;;;;12.68;58.75;102056.47;4927558;28;20057;-68
2022/04/29 05:27:48;;;;;;;36.30;21.95;;;;;;;13.04;57.92;102054.94;4962384;28;20062;-68
2022/04/29 05:30:29;;;;;;;37.45;21.15;;;;;;;13.26;57.33;102049.66;4976842;28;20050;-68
2022/04/29 05:33:14;;;;;;;41.47;21.08;;;;;;;13.46;56.55;102057.66;4961573;28;20387;-69
2022/04/29 05:36:01;;;;;;;37.47;20.20;;;;;;;13.23;56.13;102061.31;4976800;28;20050;-69
2022/04/29 05:42:14;;;;;;;33.53;20.88;;;;;;;13.14;56.30;102070.59;4963247;28;20055;-69
2022/04/29 05:44:42;;;;;;;38.25;20.33;;;;;;;12.96;56.77;102079.63;4963235;28;20062;-67
2022/04/29 05:47:10;;;;;;;32.22;20.30;;;;;;;12.96;56.56;102086.00;4961790;28;20059;-69
2022/04/29 05:49:38;;;;;;;33.47;19.73;;;;;;;12.75;57.08;102076.31;4959262;28;20085;-69
2022/04/29 05:52:10;;;;;;;35.92;20.75;;;;;;;12.66;57.10;102080.03;4957390;28;20051;-68
2022/04/29 05:54:42;;;;;;;37.25;19.40;;;;;;;12.47;57.95;102082.72;4959889;28;20054;-67
2022/04/29 05:57:13;;;;;;;33.83;19.63;;;;;;;12.81;57.35;102071.53;4969969;28;20050;-68
2022/04/29 05:59:41;;;;;;;30.67;19.95;;;;;;;12.90;56.71;102080.84;4963235;28;20057;-68
2022/04/29 06:02:27;;;;;;;38.05;20.40;;;;;;;12.64;57.69;102082.25;4976123;28;20688;-68
2022/04/29 06:05:09;;;;;;;34.97;20.02;;;;;;;12.81;57.11;102097.25;4944012;28;20063;-68
2022/04/29 06:07:41;;;;;;;36.27;19.50;;;;;;;12.89;56.83;102099.34;4958460;28;20529;-68
2022/04/29 06:10:10;;;;;;;35.03;18.92;;;;;;;13.01;56.53;102098.94;4940768;28;20317;-69
2022/04/29 06:12:40;;;;;;;29.85;18.50;;;;;;;13.30;56.50;102096.94;4955138;28;20133;-66
2022/04/29 06:15:14;;;;;;;34.33;19.17;;;;;;;13.47;55.86;102094.47;4970800;28;20043;-67
2022/04/29 06:18:07;;;;;;;41.90;19.63;;;;;;;13.36;56.28;102087.41;4969994;28;20054;-67
2022/04/29 06:21:06;;;;;;;32.67;20.38;;;;;;;13.24;56.03;102098.94;4952391;28;20061;-61
2022/04/29 06:23:48;;;;;;;50.45;21.98;;;;;;;13.24;55.88;102110.00;4958742;28;20058;-61
2022/04/29 06:26:16;;;;;;;59.93;23.40;;;;;;;13.41;56.15;102102.00;4942172;28;20046;-60
2022/04/29 06:28:47;;;;;;;32.00;18.52;;;;;;;13.42;56.46;102092.56;4973251;28;20066;-63
2022/04/29 06:31:15;;;;;;;44.60;21.30;;;;;;;13.75;54.83;102099.00;4971583;28;20054;-62
2022/04/29 06:34:17;;;;;;;38.45;20.35;;;;;;;13.33;55.48;102108.22;4952576;29;20051;-61
2022/04/29 06:36:46;;;;;;;39.03;21.38;;;;;;;13.08;56.67;102111.31;4939901;28;20134;-62
2022/04/29 06:39:13;;;;;;;38.28;19.85;;;;;;;13.24;56.51;102114.69;4956246;28;20055;-62
2022/04/29 06:42:01;;;;;;;37.65;20.77;;;;;;;13.15;56.67;102108.19;4974603;28;20059;-62
2022/04/29 06:44:46;;;;;;;37.63;20.45;;;;;;;12.91;57.61;102110.97;4960390;28;20054;-62
2022/04/29 06:47:36;;;;;;;37.73;21.50;;;;;;;13.05;57.30;102111.09;4953652;28;20058;-63
2022/04/29 06:50:22;;;;;;;39.63;22.90;;;;;;;12.78;58.08;102114.41;4974383;28;20390;-63
2022/04/29 06:53:09;;;;;;;40.17;21.98;;;;;;;13.02;57.65;102117.22;4948469;28;20058;-62
2022/04/29 06:55:38;;;;;;;50.53;23.58;;;;;;;13.12;57.66;102111.56;4972731;28;20062;-64
2022/04/29 06:58:07;;;;;;;42.75;23.67;;;;;;;13.24;56.85;102106.41;4974039;28;20058;-62
2022/04/29 07:00:38;;;;;;;41.72;21.95;;;;;;;13.32;57.17;102101.03;4972954;28;20054;-61
2022/04/29 07:03:06;;;;;;;34.28;20.65;;;;;;;13.40;56.96;102103.13;4970738;28;20044;-63
2022/04/29 07:05:36;;;;;;;42.78;22.90;;;;;;;13.30;56.93;102106.03;4958799;28;20069;-68
2022/04/29 07:08:09;;;;;;;37.80;21.77;;;;;;;13.27;57.16;102103.88;4943158;28;20051;-69
2022/04/29 07:10:56;;;;;;;38.63;23.50;;;;;;;13.10;57.67;102109.09;4974061;28;20077;-68
2022/04/29 07:13:23;;;;;;;40.10;21.98;;;;;;;13.26;57.03;102106.94;4961958;28;20047;-70
2022/04/29 07:15:51;;;;;;;45.42;22.23;;;;;;;13.32;57.07;102105.72;4957615;28;20172;-67
2022/04/29 07:18:38;;;;;;;46.33;23.20;;;;;;;13.14;57.36;102123.97;4975002;28;20071;-68
2022/04/29 07:21:06;;;;;;;38.38;21.48;;;;;;;13.20;57.72;102131.06;4960275;28;20169;-67
2022/04/29 07:23:33;;;;;;;43.63;23.50;;;;;;;12.77;58.92;102134.91;4950233;28;20047;-68
2022/04/29 07:26:00;;;;;;;41.17;23.17;;;;;;;13.02;58.96;102137.38;4952869;28;20164;-68
2022/04/29 07:28:28;;;;;;;38.50;24.08;;;;;;;12.96;58.79;102144.06;4970379;28;20051;-68
2022/04/29 07:30:57;;;;;;;48.55;25.08;;;;;;;13.05;58.98;102133.22;4950647;28;20062;-67
2022/04/29 07:33:53;;;;;;;39.80;24.00;;;;;;;13.15;58.26;102138.63;4956972;28;20050;-62
2022/04/29 07:42:13;;;;;;;40.88;23.98;;;;;;;12.81;59.55;102132.38;4956452;28;20054;-68
2022/04/29 07:44:40;;;;;;;39.63;25.63;;;;;;;13.30;58.69;102133.69;4947958;28;20055;-69
2022/04/29 07:47:11;;;;;;;43.80;26.23;;;;;;;13.16;58.73;102134.75;4957214;28;20051;-68
2022/04/29 07:49:59;;;;;;;48.78;26.27;;;;;;;13.16;58.57;102132.78;4974244;28;20059;-67
2022/04/29 07:52:27;;;;;;;47.67;26.13;;;;;;;13.43;58.30;102132.97;4966576;28;20047;-68
2022/04/29 07:54:55;;;;;;;36.95;26.35;;;;;;;13.00;59.32;102136.00;4970296;28;20055;-68
2022/04/29 07:57:23;;;;;;;46.45;26.98;;;;;;;13.01;59.63;102143.19;4957365;28;20061;-63
2022/04/29 07:59:54;;;;;;;53.53;27.98;;;;;;;12.85;60.19;102138.97;4956115;28;20065;-63
2022/04/29 08:02:40;;;;;;;50.38;27.95;;;;;;;12.86;60.23;102140.59;4974376;28;20053;-68
2022/04/29 08:05:08;;;;;;;47.70;27.35;;;;;;;12.73;60.74;102139.34;4972217;28;20046;-69
2022/04/29 08:07:36;;;;;;;45.22;27.42;;;;;;;12.64;60.61;102140.31;4936852;29;20051;-68
2022/04/29 08:10:05;;;;;;;43.20;27.05;;;;;;;12.74;60.62;102138.25;4972685;28;20058;-68
2022/04/29 08:12:33;;;;;;;52.83;28.45;;;;;;;12.88;60.16;102130.91;4966191;28;20059;-63
2022/04/29 08:15:32;;;;;;;45.83;26.67;;;;;;;13.16;58.91;102138.31;4974419;28;20054;-63
2022/04/29 08:18:14;;;;;;;46.75;27.95;;;;;;;13.13;59.30;102127.84;4960781;28;20062;-63
2022/04/29 08:20:43;;;;;;;47.88;28.25;;;;;;;13.21;59.15;102142.97;4960812;28;20054;-68
2022/04/29 08:23:11;;;;;;;44.13;27.55;;;;;;;13.53;58.64;102132.00;4960911;28;20114;-68
2022/04/29 08:25:38;;;;;;;51.15;28.20;;;;;;;13.72;57.86;102132.03;4972735;28;20042;-69
2022/04/29 08:28:06;;;;;;;44.80;27.95;;;;;;;13.69;57.63;102136.19;4960658;28;20522;-68
2022/04/29 08:30:33;;;;;;;45.85;28.30;;;;;;;13.63;57.91;102139.34;4956581;28;20529;-69
2022/04/29 08:33:01;;;;;;;49.55;29.45;;;;;;;13.58;58.04;102141.06;4967079;28;20047;-68
2022/04/29 08:35:39;;;;;;;49.50;28.95;;;;;;;13.23;59.13;102149.84;4973694;28;20054;-68
2022/04/29 08:38:10;;;;;;;48.13;28.60;;;;;;;13.49;59.21;102144.81;4975898;28;20050;-68
2022/04/29 08:40:45;;;;;;;47.88;28.92;;;;;;;14.07;57.63;102139.78;4974641;28;20062;-69
2022/04/29 08:43:15;;;;;;;45.67;29.65;;;;;;;14.29;56.41;102146.34;4975699;28;20054;-68
2022/04/29 08:45:44;;;;;;;46.15;29.55;;;;;;;13.84;57.84;102152.59;4968806;28;20208;-67
2022/04/29 08:48:44;;;;;;;47.40;28.87;;;;;;;14.15;57.04;102150.16;4970587;28;20050;-68
2022/04/29 08:51:12;;;;;;;45.33;30.85;;;;;;;14.04;56.70;102145.91;4943596;29;20124;-67
2022/04/29 08:53:40;;;;;;;54.08;31.35;;;;;;;13.91;57.90;102147.50;4958371;28;20055;-63
2022/04/29 08:58:54;;;;;;;46.42;29.80;;;;;;;13.97;57.21;102145.47;4972155;28;20055;-68
2022/04/29 09:01:21;;;;;;;45.38;29.90;;;;;;;14.29;56.84;102151.06;4960671;28;20517;-68
2022/04/29 09:03:49;;;;;;;50.60;29.95;;;;;;;14.46;55.80;102148.53;4977332;28;20058;-63
2022/04/29 09:06:17;;;;;;;41.88;30.17;;;;;;;14.16;56.90;102149.00;4976581;28;20047;-63
2022/04/29 09:08:48;;;;;;;51.03;30.10;;;;;;;14.33;56.65;102144.59;4976894;28;20047;-64
2022/04/29 09:11:26;;;;;;;41.00;29.88;;;;;;;14.66;55.51;102134.31;4944920;28;20513;-62
2022/04/29 09:13:54;;;;;;;46.80;29.52;;;;;;;14.77;54.93;102140.47;4983185;28;20060;-63
2022/04/29 09:16:37;;;;;;;48.95;29.35;;;;;;;14.78;54.88;102148.50;4966299;28;20051;-63
2022/04/29 09:19:05;;;;;;;47.15;29.33;;;;;;;14.71;54.91;102134.22;4964197;28;20058;-62
2022/04/29 09:21:32;;;;;;;42.65;28.45;;;;;;;14.93;54.13;102137.09;4977083;28;20157;-63
2022/04/29 09:24:06;;;;;;;44.40;29.92;;;;;;;14.80;54.58;102137.09;4977292;28;20062;-62
2022/04/29 09:26:59;;;;;;;45.25;28.55;;;;;;;14.93;54.16;102137.09;4974652;28;20430;-64
2022/04/29 09:29:58;;;;;;;50.72;28.25;;;;;;;14.81;54.12;102133.16;4975335;28;20054;-63
2022/04/29 09:32:54;;;;;;;42.10;29.17;;;;;;;14.91;54.30;102132.97;4965700;28;20055;-64
2022/04/29 09:35:41;;;;;;;43.03;29.02;;;;;;;15.36;53.06;102130.06;4968643;28;20065;-63
2022/04/29 09:40:57;;;;;;;43.00;28.60;;;;;;;15.29;52.77;102134.41;4972245;28;20050;-62
2022/04/29 09:43:44;;;;;;;48.53;28.17;;;;;;;15.52;53.14;102125.84;4972418;28;20058;-63
2022/04/29 09:46:22;;;;;;;47.92;27.65;;;;;;;15.63;52.49;102121.72;4975750;28;20054;-64
2022/04/29 09:49:00;;;;;;;41.22;27.83;;;;;;;15.73;52.01;102110.34;4963845;28;20051;-63
2022/04/29 09:51:48;;;;;;;41.40;27.67;;;;;;;15.70;51.83;102102.66;4974973;28;20054;-62
2022/04/29 09:54:21;;;;;;;40.92;27.30;;;;;;;16.22;50.98;102105.78;4958266;28;20054;-63
2022/04/29 09:57:14;;;;;;;44.08;28.40;;;;;;;15.90;51.12;102111.63;4972439;28;20039;-63
2022/04/29 09:59:43;;;;;;;41.85;27.38;;;;;;;16.12;51.29;102117.19;4936968;28;20062;-63
2022/04/29 10:02:18;;;;;;;42.95;27.17;;;;;;;15.89;51.32;102104.41;4975876;28;20153;-62
2022/04/29 10:04:51;;;;;;;41.80;28.27;;;;;;;16.03;50.88;102107.94;4973931;28;20054;-62
2022/04/29 10:07:22;;;;;;;45.30;26.42;;;;;;;15.93;50.85;102105.44;4976598;28;20514;-62
2022/04/29 10:09:56;;;;;;;43.15;26.70;;;;;;;15.99;51.36;102104.19;4955449;28;20054;-63
2022/04/29 10:12:25;;;;;;;42.05;27.25;;;;;;;16.00;50.95;102106.66;4981182;28;20054;-62
2022/04/29 10:15:06;;;;;;;43.60;27.17;;;;;;;16.48;50.21;102109.56;4958294;28;20051;-63
2022/04/29 10:23:33;;;;;;;44.58;28.58;;;;;;;16.45;49.92;102110.19;4946108;29;20051;-63
2022/04/29 10:26:01;;;;;;;38.63;26.35;;;;;;;16.15;50.77;102119.31;4958214;28;20046;-62
2022/04/29 10:28:29;;;;;;;43.08;26.42;;;;;;;16.08;50.93;102107.81;4973706;28;20051;-63
2022/04/29 10:31:00;;;;;;;41.50;28.55;;;;;;;16.41;50.19;102114.75;4950356;28;20360;-64
2022/04/29 10:33:28;;;;;;;43.70;28.00;;;;;;;16.49;49.91;102103.69;4957357;28;20065;-62
2022/04/29 10:35:56;;;;;;;40.78;25.80;;;;;;;16.61;49.49;102106.72;4975211;28;20050;-64
2022/04/29 10:38:36;;;;;;;39.88;25.90;;;;;;;16.65;49.79;102098.53;4957927;28;20066;-64
2022/04/29 10:41:06;;;;;;;38.63;26.45;;;;;;;16.77;49.10;102109.91;4975507;28;20050;-65
2022/04/29 10:44:00;;;;;;;;;;;;;;;16.82;49.13;102104.19;4976067;28;20042;-63
2022/04/29 10:46:30;;;;;;;40.97;26.13;;;;;;;16.81;49.24;102099.75;4952457;28;19922;-62
2022/04/29 10:49:28;;;;;;;41.80;25.25;;;;;;;16.70;49.39;102103.97;4960881;28;20066;-62
2022/04/29 10:52:28;;;;;;;37.08;26.13;;;;;;;16.60;49.66;102101.44;4973641;28;20070;-61
2022/04/29 10:55:05;;;;;;;36.95;26.63;;;;;;;16.26;50.50;102099.28;4959648;28;20054;-62
2022/04/29 10:57:44;;;;;;;40.67;25.83;;;;;;;16.54;51.00;102103.56;4973645;28;20059;-62
2022/04/29 11:00:22;;;;;;;40.47;26.90;;;;;;;16.53;50.51;102103.88;4943628;28;20069;-62
2022/04/29 11:02:52;;;;;;;42.17;26.17;;;;;;;16.57;50.60;102111.28;4958620;28;20141;-63
2022/04/29 11:05:40;;;;;;;43.47;26.13;;;;;;;16.88;50.01;102099.31;4959237;28;20046;-63
2022/04/29 11:08:09;;;;;;;37.15;24.50;;;;;;;17.04;48.78;102100.47;4957973;28;20074;-62
2022/04/29 11:10:58;;;;;;;36.22;24.38;;;;;;;16.74;49.25;102103.00;4958333;28;20233;-63
2022/04/29 11:13:27;;;;;;;35.78;24.38;;;;;;;16.71;49.48;102094.47;4970879;28;20051;-64
2022/04/29 11:16:15;;;;;;;33.53;24.35;;;;;;;17.11;48.36;102093.28;4958075;28;20062;-63
2022/04/29 11:19:28;;;;;;;37.42;23.50;;;;;;;17.22;47.51;102097.44;4951758;28;20210;-62
2022/04/29 11:24:46;;;;;;;;;;;;;;;17.29;46.82;102081.06;4967050;28;20510;-61
2022/04/29 11:27:37;;;;;;;34.97;24.13;;;;;;;17.14;47.17;102094.63;4961914;28;19923;-62
2022/04/29 11:30:09;;;;;;;38.92;23.17;;;;;;;17.42;46.34;102084.81;4947214;28;20050;-62
2022/04/29 11:33:02;;;;;;;39.92;22.80;;;;;;;17.42;46.10;102088.44;4972210;28;20073;-61
2022/04/29 11:35:29;;;;;;;33.13;22.95;;;;;;;17.44;45.99;102088.94;4937911;28;20047;-62
2022/04/29 11:37:58;;;;;;;32.10;23.45;;;;;;;17.38;45.45;102078.28;4971844;28;20055;-63
2022/04/29 11:40:27;;;;;;;37.40;23.77;;;;;;;17.58;45.31;102067.34;4956713;28;20051;-61
2022/04/29 11:42:54;;;;;;;40.10;23.17;;;;;;;17.84;44.92;102059.78;4973394;28;20061;-62
2022/04/29 11:45:23;;;;;;;37.92;23.33;;;;;;;17.95;44.91;102068.63;4973905;28;20043;-63
2022/04/29 11:48:02;;;;;;;34.33;22.65;;;;;;;17.57;45.60;102074.03;4950735;28;20085;-62
2022/04/29 11:50:36;;;;;;;37.70;23.45;;;;;;;17.41;46.23;102070.09;4957353;28;20051;-62
2022/04/29 11:53:05;;;;;;;33.13;22.73;;;;;;;17.48;46.19;102066.84;4957994;28;20050;-63
2022/04/29 11:55:33;;;;;;;34.20;22.05;;;;;;;17.85;45.71;102071.75;4955732;28;20086;-62
2022/04/29 11:58:01;;;;;;;37.88;22.73;;;;;;;17.87;45.05;102061.06;4965812;28;20065;-65
2022/04/29 12:00:31;;;;;;;34.80;21.83;;;;;;;17.97;45.01;102067.13;4967182;28;20055;-61
2022/04/29 12:03:00;;;;;;;34.72;22.25;;;;;;;18.06;44.58;102069.94;4964976;28;20055;-61
2022/04/29 12:05:28;;;;;;;33.97;22.33;;;;;;;18.02;43.77;102060.56;4967807;28;20073;-63
2022/04/29 12:08:01;;;;;;;31.42;20.00;;;;;;;18.07;44.53;102060.41;4960646;28;20050;-62